Time;durP1;ratioP1;P1;durP2;ratioP2;P2;SDS_P1;SDS_P2;PMS_P1;PMS_P2;Temp;Humidity;BMP_temperature;BMP_pressure;BME280_temperature;BME280_humidity;BME280_pressure;Samples;Min_cycle;Max_cycle;Signal;HPM_P1;HPM_P2
2022/05/11 00:01:37;;;;;;;;;;;;;;;10.16;35.42;98899.16;4788834;29;19933;-77
2022/05/11 00:04:03;;;;;;;;;;;;;;;10.47;36.50;98888.38;4795026;29;19952;-76
2022/05/11 00:06:29;;;;;;;;;;;;;;;10.17;34.91;98893.97;4801236;29;20027;-74
2022/05/11 00:08:54;;;;;;;;;;;;;;;10.13;35.79;98894.91;4786880;29;19921;-75
2022/05/11 00:11:20;;;;;;;;;;;;;;;10.28;35.33;98890.41;4800515;29;19921;-76
2022/05/11 00:13:45;;;;;;;;;;;;;;;10.16;35.52;98874.09;4771407;30;19925;-76
2022/05/11 00:16:11;;;;;;;;;;;;;;;10.10;34.96;98879.38;4799599;29;19920;-76
2022/05/11 00:18:37;;;;;;;;;;;;;;;9.92;35.66;98885.69;4787927;29;19939;-77
2022/05/11 00:21:02;;;;;;;;;;;;;;;9.96;35.92;98881.31;4797198;29;19928;-76
2022/05/11 00:23:28;;;;;;;;;;;;;;;10.07;36.15;98879.44;4789565;29;19970;-76
2022/05/11 00:25:53;;;;;;;;;;;;;;;10.04;35.35;98879.50;4786440;29;19925;-76
2022/05/11 00:28:19;;;;;;;;;;;;;;;10.00;35.41;98877.81;4771286;30;19917;-76
2022/05/11 00:30:45;;;;;;;;;;;;;;;10.15;36.09;98882.75;4771092;30;20416;-76
2022/05/11 00:33:11;;;;;;;;;;;;;;;10.35;37.43;98873.84;4793039;29;20389;-76
2022/05/11 00:35:36;;;;;;;;;;;;;;;10.44;35.51;98868.53;4789614;29;20320;-77
2022/05/11 00:38:02;;;;;;;;;;;;;;;10.23;35.05;98868.84;4797480;29;19917;-77
2022/05/11 00:40:28;;;;;;;;;;;;;;;10.14;35.79;98865.50;4771544;30;20409;-76
2022/05/11 00:42:53;;;;;;;;;;;;;;;10.13;34.49;98876.75;4790683;29;20031;-76
2022/05/11 00:45:19;;;;;;;;;;;;;;;9.89;35.70;98875.34;4796686;29;19961;-74
2022/05/11 00:47:46;;;;;;;;;;;;;;;9.96;35.40;98870.97;4798881;29;19977;-77
2022/05/11 00:50:19;;;;;;;;;;;;;;;9.85;35.58;98873.72;4792808;29;19921;-76
2022/05/11 00:52:47;;;;;;;;;;;;;;;9.79;35.53;98872.94;4792219;29;19941;-76
2022/05/11 00:55:33;;;;;;;;;;;;;;;9.89;35.80;98874.50;4798050;29;19932;-75
2022/05/11 00:58:04;;;;;;;;;;;;;;;9.85;35.29;98870.25;4787516;29;20358;-76
2022/05/11 01:00:30;;;;;;;;;;;;;;;9.90;37.01;98871.06;4800622;29;19990;-76
2022/05/11 01:02:59;;;;;;;;;;;;;;;9.81;36.70;98863.41;4791161;29;19917;-76
2022/05/11 01:05:25;;;;;;;;;;;;;;;9.96;36.17;98860.59;4785758;29;19933;-76
2022/05/11 01:07:52;;;;;;;;;;;;;;;9.92;35.36;98859.78;4781258;29;20011;-76
2022/05/11 01:10:17;;;;;;;;;;;;;;;9.82;36.47;98867.72;4797312;29;19928;-76
2022/05/11 01:12:43;;;;;;;;;;;;;;;9.73;36.49;98857.47;4798355;29;20367;-74
2022/05/11 01:15:10;;;;;;;;;;;;;;;9.83;35.85;98857.31;4791498;29;19921;-75
2022/05/11 01:17:36;;;;;;;;;;;;;;;9.82;35.59;98867.72;4794078;29;19917;-76
2022/05/11 01:20:01;;;;;;;;;;;;;;;9.97;36.35;98859.72;4773014;29;20381;-75
2022/05/11 01:22:30;;;;;;;;;;;;;;;10.03;35.84;98863.94;4795942;29;20278;-77
2022/05/11 01:24:55;;;;;;;;;;;;;;;9.95;36.29;98858.91;4787999;29;19932;-76
2022/05/11 01:27:21;;;;;;;;;;;;;;;9.70;35.88;98852.31;4785544;29;20016;-76
2022/05/11 01:29:46;;;;;;;;;;;;;;;9.61;37.02;98863.66;4787041;29;19928;-76
2022/05/11 01:32:12;;;;;;;;;;;;;;;9.65;35.46;98866.19;4781686;29;19924;-76
2022/05/11 01:34:37;;;;;;;;;;;;;;;9.96;36.39;98864.94;4785732;29;19921;-75
2022/05/11 01:37:03;;;;;;;;;;;;;;;9.79;35.72;98858.22;4785995;29;20374;-76
2022/05/11 01:39:28;;;;;;;;;;;;;;;9.86;35.64;98864.22;4772051;30;19921;-77
2022/05/11 01:41:54;;;;;;;;;;;;;;;9.75;35.25;98855.72;4787240;29;19959;-76
2022/05/11 01:44:20;;;;;;;;;;;;;;;9.88;36.19;98863.28;4786534;29;20384;-75
2022/05/11 01:46:46;;;;;;;;;;;;;;;10.00;36.82;98856.25;4785801;29;19963;-76
2022/05/11 01:49:12;;;;;;;;;;;;;;;10.17;36.25;98849.94;4786356;29;19921;-77
2022/05/11 01:51:37;;;;;;;;;;;;;;;10.08;35.04;98855.25;4787867;29;19932;-76
2022/05/11 01:54:03;;;;;;;;;;;;;;;10.01;35.16;98855.34;4786714;29;19932;-76
2022/05/11 01:56:28;;;;;;;;;;;;;;;10.07;37.09;98853.50;4787210;29;20002;-76
2022/05/11 01:58:54;;;;;;;;;;;;;;;10.04;35.71;98848.41;4786427;29;19932;-77
2022/05/11 02:01:21;;;;;;;;;;;;;;;9.89;35.42;98856.38;4789051;29;19917;-76
2022/05/11 02:03:46;;;;;;;;;;;;;;;9.80;35.67;98848.72;4779224;29;19964;-76
2022/05/11 02:08:56;;;;;;;;;;;;;;;9.55;35.79;98848.22;4788993;29;19925;-75
2022/05/11 02:11:21;;;;;;;;;;;;;;;9.68;36.24;98844.59;4775888;30;20070;-76
2022/05/11 02:13:47;;;;;;;;;;;;;;;9.60;35.64;98849.00;4785398;29;19921;-77
2022/05/11 02:16:13;;;;;;;;;;;;;;;9.73;36.79;98842.78;4788778;29;20390;-75
2022/05/11 02:18:39;;;;;;;;;;;;;;;9.71;36.63;98854.03;4798802;29;19920;-77
2022/05/11 02:21:05;;;;;;;;;;;;;;;9.80;36.22;98840.97;4772556;30;19925;-77
2022/05/11 02:23:30;;;;;;;;;;;;;;;9.88;36.82;98845.16;4795335;29;19921;-78
2022/05/11 02:25:56;;;;;;;;;;;;;;;9.94;36.45;98851.97;4791550;29;19928;-76
2022/05/11 02:28:24;;;;;;;;;;;;;;;10.12;36.75;98841.34;4797786;29;19928;-75
2022/05/11 02:30:51;;;;;;;;;;;;;;;9.91;34.89;98841.69;4789020;29;19924;-76
2022/05/11 02:33:16;;;;;;;;;;;;;;;9.97;36.42;98845.91;4799275;29;19957;-75
2022/05/11 02:35:42;;;;;;;;;;;;;;;9.86;35.79;98846.94;4789249;29;19956;-75
2022/05/11 02:38:15;;;;;;;;;;;;;;;9.88;35.25;98847.75;4802260;29;19925;-76
2022/05/11 02:40:40;;;;;;;;;;;;;;;9.91;34.94;98844.28;4799299;29;19921;-75
2022/05/11 02:43:06;;;;;;;;;;;;;;;9.91;36.76;98844.28;4787260;30;19925;-76
2022/05/11 02:45:32;;;;;;;;;;;;;;;9.94;35.55;98846.78;4798918;29;19932;-77
2022/05/11 02:47:58;;;;;;;;;;;;;;;9.92;35.53;98848.56;4794414;29;20278;-76
2022/05/11 02:50:28;;;;;;;;;;;;;;;9.86;35.84;98846.06;4794029;29;19921;-75
2022/05/11 02:52:53;;;;;;;;;;;;;;;9.81;35.38;98840.09;4794708;29;19921;-75
2022/05/11 02:55:19;;;;;;;;;;;;;;;9.79;35.92;98841.84;4802359;29;19934;-76
2022/05/11 02:57:44;;;;;;;;;;;;;;;9.82;36.13;98842.66;4798150;29;19932;-75
2022/05/11 03:00:11;;;;;;;;;;;;;;;9.97;36.28;98841.56;4792171;29;19921;-76
2022/05/11 03:02:37;;;;;;;;;;;;;;;10.04;36.28;98839.78;4787913;29;21880;-75
2022/05/11 03:05:02;;;;;;;;;;;;;;;9.94;35.41;98836.44;4800533;29;20015;-75
2022/05/11 03:07:28;;;;;;;;;;;;;;;9.80;35.17;98843.53;4799513;29;19974;-75
2022/05/11 03:09:54;;;;;;;;;;;;;;;9.87;36.17;98840.00;4790843;29;19917;-75
2022/05/11 03:12:22;;;;;;;;;;;;;;;9.99;35.36;98845.03;4789885;29;20109;-75
2022/05/11 03:14:48;;;;;;;;;;;;;;;10.11;36.03;98846.56;4790883;29;20015;-76
2022/05/11 03:17:13;;;;;;;;;;;;;;;10.05;36.12;98839.72;4799150;29;20326;-77
2022/05/11 03:19:39;;;;;;;;;;;;;;;10.18;36.47;98845.59;4794887;29;19917;-76
2022/05/11 03:22:04;;;;;;;;;;;;;;;10.32;35.60;98843.66;4803311;29;20066;-77
2022/05/11 03:24:30;;;;;;;;;;;;;;;10.26;35.08;98850.66;4792439;29;19973;-75
2022/05/11 03:26:55;;;;;;;;;;;;;;;10.35;35.88;98842.75;4800816;29;20011;-77
2022/05/11 03:29:21;;;;;;;;;;;;;;;10.47;35.39;98854.66;4799319;29;20015;-76
2022/05/11 03:34:37;;;;;;;;;;;;;;;9.37;36.45;98854.47;4799492;29;19969;-75
2022/05/11 03:37:04;;;;;;;;;;;;;;;9.04;36.78;98856.59;4792565;29;19977;-76
2022/05/11 03:39:30;;;;;;;;;;;;;;;8.95;37.11;98850.66;4796995;29;19917;-76
2022/05/11 03:41:55;;;;;;;;;;;;;;;8.87;37.66;98854.16;4801565;29;19928;-76
2022/05/11 03:44:20;;;;;;;;;;;;;;;8.83;37.72;98847.31;4793807;29;19921;-76
2022/05/11 03:46:46;;;;;;;;;;;;;;;8.68;38.17;98849.19;4795238;29;20014;-75
2022/05/11 03:49:11;;;;;;;;;;;;;;;8.68;38.27;98849.19;4790700;29;21171;-77
2022/05/11 03:51:37;;;;;;;;;;;;;;;8.63;38.06;98850.09;4792013;29;19925;-76
2022/05/11 03:54:03;;;;;;;;;;;;;;;8.61;38.46;98857.03;4799947;29;20466;-77
2022/05/11 03:56:28;;;;;;;;;;;;;;;8.63;38.66;98860.44;4800116;29;19922;-78
2022/05/11 03:58:56;;;;;;;;;;;;;;;8.63;38.18;98844.91;4786818;29;19957;-80
2022/05/11 04:01:21;;;;;;;;;;;;;;;8.70;38.84;98857.78;4792966;29;19921;-79
2022/05/11 04:03:47;;;;;;;;;;;;;;;8.71;38.56;98851.75;4770525;29;19924;-79
2022/05/11 04:06:13;;;;;;;;;;;;;;;8.76;38.53;98849.97;4778566;29;19928;-78
2022/05/11 04:08:38;;;;;;;;;;;;;;;8.84;38.47;98858.50;4808867;29;19917;-79
2022/05/11 04:11:04;;;;;;;;;;;;;;;8.90;38.42;98853.28;4789713;29;19953;-78
2022/05/11 04:13:30;;;;;;;;;;;;;;;8.99;38.54;98850.59;4775930;29;19921;-80
2022/05/11 04:15:56;;;;;;;;;;;;;;;8.97;38.62;98857.50;4808354;29;19928;-78
2022/05/11 04:18:21;;;;;;;;;;;;;;;9.00;38.78;98860.06;4795389;29;19918;-79
2022/05/11 04:20:47;;;;;;;;;;;;;;;8.98;38.60;98861.84;4775650;30;19970;-79
2022/05/11 04:23:12;;;;;;;;;;;;;;;8.96;38.52;98863.56;4783069;30;19918;-78
2022/05/11 04:25:38;;;;;;;;;;;;;;;9.17;38.32;98854.72;4789911;29;19925;-80
2022/05/11 04:28:06;;;;;;;;;;;;;;;9.08;38.50;98852.25;4796808;29;19943;-80
2022/05/11 04:30:32;;;;;;;;;;;;;;;9.10;38.42;98856.50;4799751;29;19963;-81
2022/05/11 04:32:58;;;;;;;;;;;;;;;9.15;38.38;98859.03;4775134;30;19917;-79
2022/05/11 04:35:30;;;;;;;;;;;;;;;9.20;38.11;98859.84;4765911;30;19949;-78
2022/05/11 04:37:59;;;;;;;;;;;;;;;9.29;37.82;98856.28;4779026;29;19921;-79
2022/05/11 04:40:25;;;;;;;;;;;;;;;9.39;37.69;98847.53;4785879;30;19929;-77
2022/05/11 04:42:50;;;;;;;;;;;;;;;9.45;37.16;98846.63;4759001;30;19925;-78
2022/05/11 04:45:16;;;;;;;;;;;;;;;9.52;37.55;98854.28;4790212;30;19921;-80
2022/05/11 04:47:41;;;;;;;;;;;;;;;9.74;37.32;98860.03;4788985;29;19921;-79
2022/05/11 04:50:07;;;;;;;;;;;;;;;9.78;36.44;98855.69;4771731;30;20417;-80
2022/05/11 04:52:33;;;;;;;;;;;;;;;9.78;37.08;98860.84;4773773;30;19927;-80
2022/05/11 04:54:59;;;;;;;;;;;;;;;9.85;36.63;98855.59;4788295;29;19947;-80
2022/05/11 04:57:24;;;;;;;;;;;;;;;10.03;36.36;98857.03;4788844;29;19925;-79
2022/05/11 04:59:50;;;;;;;;;;;;;;;10.02;35.89;98859.66;4774002;30;20374;-80
2022/05/11 05:02:17;;;;;;;;;;;;;;;10.09;36.60;98851.78;4790652;29;20015;-79
2022/05/11 05:04:43;;;;;;;;;;;;;;;10.31;35.29;98856.63;4796507;29;19964;-79
2022/05/11 05:07:08;;;;;;;;;;;;;;;10.30;35.65;98850.59;4769396;30;19926;-78
2022/05/11 05:09:33;;;;;;;;;;;;;;;10.42;35.19;98852.16;4799266;29;19928;-80
2022/05/11 05:12:01;;;;;;;;;;;;;;;10.45;35.28;98848.66;4791315;29;19955;-80
2022/05/11 05:14:27;;;;;;;;;;;;;;;10.64;34.36;98852.66;4773729;29;19917;-80
2022/05/11 05:16:52;;;;;;;;;;;;;;;10.61;34.35;98850.94;4801082;29;19928;-80
2022/05/11 05:19:18;;;;;;;;;;;;;;;10.57;34.41;98841.50;4794993;29;19917;-78
2022/05/11 05:21:43;;;;;;;;;;;;;;;10.68;34.26;98847.38;4795616;29;19937;-79
2022/05/11 05:24:09;;;;;;;;;;;;;;;10.68;34.28;98849.97;4773299;30;19924;-83
2022/05/11 05:26:34;;;;;;;;;;;;;;;10.74;34.68;98840.38;4775511;30;19930;-80
2022/05/11 05:31:44;;;;;;;;;;;;;;;10.88;33.71;98839.22;4807394;29;20428;-80
2022/05/11 05:34:10;;;;;;;;;;;;;;;11.00;33.03;98843.34;4793108;29;20015;-81
2022/05/11 05:36:36;;;;;;;;;;;;;;;11.00;33.79;98853.72;4761760;30;20386;-80
2022/05/11 05:39:02;;;;;;;;;;;;;;;11.27;32.32;98839.38;4789309;30;19917;-80
2022/05/11 05:41:28;;;;;;;;;;;;;;;11.30;32.09;98843.63;4774669;30;19937;-80
2022/05/11 05:43:54;;;;;;;;;;;;;;;11.25;32.18;98843.72;4794336;29;20510;-80
2022/05/11 05:46:19;;;;;;;;;;;;;;;11.30;31.69;98846.22;4778830;30;19955;-79
2022/05/11 05:48:45;;;;;;;;;;;;;;;11.34;32.30;98847.88;4766461;30;19970;-79
2022/05/11 05:51:11;;;;;;;;;;;;;;;11.45;31.83;98851.09;4790624;29;20386;-79
2022/05/11 05:53:39;;;;;;;;;;;;;;;11.47;31.81;98859.72;4801556;29;19925;-79
2022/05/11 05:56:04;;;;;;;;;;;;;;;11.53;31.50;98841.41;4774998;29;20443;-79
2022/05/11 05:58:30;;;;;;;;;;;;;;;11.59;31.66;98851.69;4762530;30;19917;-80
2022/05/11 06:00:55;;;;;;;;;;;;;;;11.67;31.50;98841.09;4768798;30;19971;-80
2022/05/11 06:03:22;;;;;;;;;;;;;;;11.74;31.68;98842.69;4794556;29;19954;-81
2022/05/11 06:05:47;;;;;;;;;;;;;;;11.78;31.57;98839.16;4771309;30;19951;-79
2022/05/11 06:08:15;;;;;;;;;;;;;;;11.86;31.80;98846.78;4795091;30;20385;-78
2022/05/11 06:10:41;;;;;;;;;;;;;;;11.95;31.14;98846.56;4792462;30;20335;-79
2022/05/11 06:13:07;;;;;;;;;;;;;;;12.08;30.95;98842.81;4790405;30;19917;-78
2022/05/11 06:15:35;;;;;;;;;;;;;;;12.20;30.23;98845.13;4809962;29;20069;-80
2022/05/11 06:18:00;;;;;;;;;;;;;;;12.16;30.86;98843.50;4801178;29;19917;-79
2022/05/11 06:20:26;;;;;;;;;;;;;;;12.28;30.03;98838.88;4782787;29;19944;-80
2022/05/11 06:22:53;;;;;;;;;;;;;;;12.41;30.06;98845.50;4767335;29;20373;-79
2022/05/11 06:25:20;;;;;;;;;;;;;;;12.47;29.88;98850.56;4778498;30;19925;-81
2022/05/11 06:27:45;;;;;;;;;;;;;;;12.65;29.69;98839.69;4806643;29;19944;-80
2022/05/11 06:30:11;;;;;;;;;;;;;;;12.63;29.21;98835.41;4764863;30;19921;-83
2022/05/11 06:32:36;;;;;;;;;;;;;;;12.75;29.62;98839.47;4781004;29;19938;-80
2022/05/11 06:35:02;;;;;;;;;;;;;;;12.85;29.72;98836.56;4794337;30;20019;-79
2022/05/11 06:37:28;;;;;;;;;;;;;;;13.04;29.78;98846.47;4796326;29;19921;-79
2022/05/11 06:39:54;;;;;;;;;;;;;;;13.14;29.51;98833.16;4779761;29;20025;-79
2022/05/11 06:42:20;;;;;;;;;;;;;;;13.15;28.88;98831.44;4789307;30;19917;-78
2022/05/11 06:44:45;;;;;;;;;;;;;;;13.23;29.30;98821.66;4804862;29;19982;-79
2022/05/11 06:47:11;;;;;;;;;;;;;;;13.51;28.51;98828.69;4807588;29;19924;-79
2022/05/11 06:49:37;;;;;;;;;;;;;;;13.53;28.28;98827.75;4801028;29;19925;-79
2022/05/11 06:52:02;;;;;;;;;;;;;;;13.55;28.38;98825.94;4806406;29;19971;-81
2022/05/11 06:59:57;;;;;;;;;;;;;;;13.40;28.30;98827.25;4792901;29;20015;-78
2022/05/11 07:02:22;;;;;;;;;;;;;;;13.59;28.19;98827.56;4791696;29;20349;-81
2022/05/11 07:04:48;;;;;;;;;;;;;;;13.59;28.07;98822.34;4809520;29;19937;-79
2022/05/11 07:07:14;;;;;;;;;;;;;;;13.79;27.43;98824.38;4791783;30;19970;-82
2022/05/11 07:09:39;;;;;;;;;;;;;;;13.72;27.20;98813.28;4769231;30;20412;-79
2022/05/11 07:12:17;;;;;;;;;;;;;;;13.71;26.42;98822.00;4788920;30;19917;-80
2022/05/11 07:14:43;;;;;;;;;;;;;;;13.67;26.96;98815.19;4785215;29;19970;-80
2022/05/11 07:17:09;;;;;;;;;;;;;;;13.62;27.42;98822.28;4792482;29;19917;-79
2022/05/11 07:19:34;;;;;;;;;;;;;;;13.85;27.61;98812.91;4784350;29;19957;-80
2022/05/11 07:22:00;;;;;;;;;;;;;;;13.84;27.08;98816.44;4793073;29;19917;-82
2022/05/11 07:24:26;;;;;;;;;;;;;;;13.78;27.12;98804.41;4802182;29;19953;-80
2022/05/11 07:26:51;;;;;;;;;;;;;;;13.95;27.19;98801.28;4786360;30;19921;-78
2022/05/11 07:29:17;;;;;;;;;;;;;;;14.08;26.71;98797.41;4777112;30;20382;-80
2022/05/11 07:31:43;;;;;;;;;;;;;;;14.21;26.38;98813.50;4784113;29;20296;-81
2022/05/11 07:34:09;;;;;;;;;;;;;;;14.42;25.84;98796.28;4792603;29;20442;-84
2022/05/11 07:36:34;;;;;;;;;;;;;;;14.32;25.58;98802.72;4762516;30;19944;-79
2022/05/11 07:39:01;;;;;;;;;;;;;;;14.54;25.08;98793.31;4776975;30;20040;-81
2022/05/11 07:41:26;;;;;;;;;;;;;;;14.47;25.55;98794.38;4791083;29;19917;-79
2022/05/11 07:43:52;;;;;;;;;;;;;;;14.61;24.85;98792.16;4772017;29;19989;-82
2022/05/11 07:46:17;;;;;;;;;;;;;;;14.68;25.05;98788.47;4776704;30;20378;-84
2022/05/11 07:48:43;;;;;;;;;;;;;;;14.74;24.89;98777.78;4792337;29;20336;-79
2022/05/11 07:51:09;;;;;;;;;;;;;;;14.76;25.42;98776.91;4796248;29;19940;-81
2022/05/11 07:53:34;;;;;;;;;;;;;;;14.79;25.22;98772.41;4801892;29;19933;-79
2022/05/11 08:01:28;;;;;;;;;;;;;;;15.31;25.21;98767.06;4803024;29;19927;-79
2022/05/11 08:03:53;;;;;;;;;;;;;;;15.52;25.31;98763.63;4783615;29;19921;-80
2022/05/11 08:06:19;;;;;;;;;;;;;;;15.86;25.06;98764.97;4780403;29;19994;-79
2022/05/11 08:08:45;;;;;;;;;;;;;;;16.22;25.27;98768.69;4761079;29;19972;-80
2022/05/11 08:11:11;;;;;;;;;;;;;;;16.43;25.08;98763.47;4775450;30;19929;-81
2022/05/11 08:13:36;;;;;;;;;;;;;;;16.67;23.87;98754.56;4777235;29;19922;-80
2022/05/11 08:16:02;;;;;;;;;;;;;;;16.69;23.43;98760.59;4788199;30;20016;-79
2022/05/11 08:18:28;;;;;;;;;;;;;;;17.24;22.49;98755.56;4789653;29;19925;-81
2022/05/11 08:20:53;;;;;;;;;;;;;;;17.34;22.36;98755.13;4774930;29;20412;-78
2022/05/11 08:23:20;;;;;;;;;;;;;;;17.47;22.12;98748.41;4800855;29;19952;-80
2022/05/11 08:25:46;;;;;;;;;;;;;;;17.72;22.04;98758.56;4776817;29;19926;-81
2022/05/11 08:28:15;;;;;;;;;;;;;;;17.96;22.26;98743.44;4789813;29;20396;-80
2022/05/11 08:33:28;;;;;;;;;;;;;;;17.99;21.78;98759.06;4792209;29;20003;-79
2022/05/11 08:35:58;;;;;;;;;;;;;;;18.32;22.01;98751.28;4791777;29;19924;-78
2022/05/11 08:38:25;;;;;;;;;;;;;;;18.23;21.70;98747.34;4789878;30;19928;-79
2022/05/11 08:40:53;;;;;;;;;;;;;;;17.71;22.00;98749.84;4765564;29;20302;-78
2022/05/11 08:43:19;;;;;;;;;;;;;;;18.09;22.38;98739.31;4802509;29;19951;-79
2022/05/11 08:46:02;;;;;;;;;;;;;;;18.34;22.43;98744.19;4759575;30;19926;-79
2022/05/11 08:48:34;;;;;;;;;;;;;;;18.22;21.28;98745.66;4787106;30;20409;-80
2022/05/11 08:51:00;;;;;;;;;;;;;;;17.98;21.61;98741.63;4789912;29;19929;-80
2022/05/11 08:53:37;;;;;;;;;;;;;;;17.86;22.34;98736.97;4775569;29;19921;-79
2022/05/11 08:56:09;;;;;;;;;;;;;;;18.06;22.09;98734.22;4792067;29;19932;-78
2022/05/11 08:58:46;;;;;;;;;;;;;;;17.98;22.52;98729.34;4801957;29;19925;-80
2022/05/11 09:01:14;;;;;;;;;;;;;;;17.98;22.78;98726.72;4773995;30;19925;-79
2022/05/11 09:03:41;;;;;;;;;;;;;;;18.46;22.17;98742.72;4802448;29;20020;-78
2022/05/11 09:06:10;;;;;;;;;;;;;;;18.77;22.09;98731.50;4797142;29;19925;-79
2022/05/11 09:08:36;;;;;;;;;;;;;;;18.57;21.88;98734.31;4792433;29;20399;-79
2022/05/11 09:11:03;;;;;;;;;;;;;;;17.95;22.13;98742.59;4800901;29;19928;-79
2022/05/11 09:13:29;;;;;;;;;;;;;;;18.24;21.97;98732.47;4786967;29;20345;-80
2022/05/11 09:16:00;;;;;;;;;;;;;;;17.99;22.45;98724.94;4774373;30;19925;-82
2022/05/11 09:18:38;;;;;;;;;;;;;;;17.73;22.51;98739.28;4785054;30;20408;-78
2022/05/11 09:21:20;;;;;;;;;;;;;;;17.74;22.07;98747.13;4801821;29;20002;-79
2022/05/11 09:23:51;;;;;;;;;;;;;;;17.91;22.14;98740.22;4801209;29;20278;-79
2022/05/11 09:26:16;;;;;;;;;;;;;;;17.65;22.54;98734.44;4775921;30;19929;-80
2022/05/11 09:28:45;;;;;;;;;;;;;;;17.33;22.80;98732.47;4774076;29;19921;-79
2022/05/11 09:31:17;;;;;;;;;;;;;;;17.18;23.53;98734.88;4801752;29;20071;-80
2022/05/11 09:33:54;;;;;;;;;;;;;;;17.43;23.16;98728.50;4800081;29;19964;-78
2022/05/11 09:36:20;;;;;;;;;;;;;;;17.16;23.24;98741.09;4789314;29;19921;-81
2022/05/11 09:38:46;;;;;;;;;;;;;;;17.06;23.53;98727.56;4787369;30;20361;-82
2022/05/11 09:41:13;;;;;;;;;;;;;;;17.04;23.33;98737.25;4767084;30;19921;-80
2022/05/11 09:43:38;;;;;;;;;;;;;;;16.84;23.74;98746.00;4778752;30;19969;-80
2022/05/11 09:46:17;;;;;;;;;;;;;;;16.73;23.49;98741.25;4812186;29;19982;-82
2022/05/11 09:49:02;;;;;;;;;;;;;;;16.91;23.76;98730.88;4778404;30;19921;-80
2022/05/11 09:51:34;;;;;;;;;;;;;;;16.88;23.58;98726.63;4804204;29;19974;-80
2022/05/11 09:54:02;;;;;;;;;;;;;;;17.48;22.61;98739.63;4803212;29;19972;-80
2022/05/11 09:56:31;;;;;;;;;;;;;;;18.07;22.02;98745.56;4809276;29;19924;-80
2022/05/11 09:59:12;;;;;;;;;;;;;;;18.82;21.03;98740.00;4776596;30;19928;-79
2022/05/11 10:01:38;;;;;;;;;;;;;;;19.13;21.16;98739.22;4776099;30;19921;-80
2022/05/11 10:04:04;;;;;;;;;;;;;;;19.71;20.48;98740.50;4800614;29;19917;-80
2022/05/11 10:06:34;;;;;;;;;;;;;;;20.40;19.63;98740.00;4792837;29;19961;-80
2022/05/11 10:09:01;;;;;;;;;;;;;;;20.77;19.98;98732.56;4792268;29;19925;-79
2022/05/11 10:11:33;;;;;;;;;;;;;;;21.10;19.87;98729.66;4777958;30;20351;-81
2022/05/11 10:21:50;;;;;;;;;;;;;;;21.21;19.12;98736.88;4804697;29;19921;-81
2022/05/11 10:22:35;;;;;;;;;;;;;;;19.43;20.82;98741.16;4792382;29;19959;-79
2022/05/11 10:25:24;;;;;;;;;;;;;;;19.39;20.58;98734.34;4790903;29;19925;-81
2022/05/11 10:28:08;;;;;;;;;;;;;;;18.99;21.18;98737.34;4792298;29;19925;-80
2022/05/11 10:30:49;;;;;;;;;;;;;;;18.72;21.60;98744.88;4791484;29;19928;-79
2022/05/11 10:33:18;;;;;;;;;;;;;;;18.78;21.84;98746.34;4797878;29;20047;-80
2022/05/11 10:35:50;;;;;;;;;;;;;;;18.77;21.93;98739.41;4784209;29;19960;-77
2022/05/11 10:38:35;;;;;;;;;;;;;;;18.88;22.18;98736.22;4789404;30;20297;-80
2022/05/11 10:41:07;;;;;;;;;;;;;;;19.25;21.76;98737.72;4793471;29;19921;-79
2022/05/11 10:43:45;;;;;;;;;;;;;;;19.62;21.10;98726.06;4779559;30;20300;-79
2022/05/11 10:46:14;;;;;;;;;;;;;;;19.62;21.91;98730.47;4792177;29;19925;-81
2022/05/11 10:48:41;;;;;;;;;;;;;;;19.35;21.87;98719.66;4795719;29;19974;-81
2022/05/11 10:51:19;;;;;;;;;;;;;;;19.22;22.06;98712.44;4809549;29;19921;-81
2022/05/11 10:53:57;;;;;;;;;;;;;;;19.36;22.48;98710.84;4794626;29;20458;-80
2022/05/11 10:56:26;;;;;;;;;;;;;;;20.04;21.43;98706.13;4795145;29;19956;-80
2022/05/11 10:58:54;;;;;;;;;;;;;;;20.58;20.86;98706.47;4795735;29;20434;-82
2022/05/11 11:01:22;;;;;;;;;;;;;;;20.93;20.62;98690.28;4813270;29;20426;-83
2022/05/11 11:03:54;;;;;;;;;;;;;;;21.14;20.06;98693.41;4794882;29;19942;-80
2022/05/11 11:09:14;;;;;;;;;;;;;;;20.60;20.88;98686.16;4790789;29;19921;-79
2022/05/11 11:11:40;;;;;;;;;;;;;;;20.98;20.42;98686.44;4807517;29;19917;-79
2022/05/11 11:14:07;;;;;;;;;;;;;;;21.60;19.80;98679.94;4798465;29;19921;-79
2022/05/11 11:16:34;;;;;;;;;;;;;;;21.46;19.83;98672.91;4776583;30;19917;-78
2022/05/11 11:18:59;;;;;;;;;;;;;;;21.38;19.96;98675.19;4803571;29;19967;-79
2022/05/11 11:21:25;;;;;;;;;;;;;;;21.08;20.68;98659.50;4802345;29;19957;-80
2022/05/11 11:24:09;;;;;;;;;;;;;;;20.99;20.24;98660.94;4782281;29;19951;-80
2022/05/11 11:26:46;;;;;;;;;;;;;;;21.66;19.70;98653.13;4802903;29;20421;-80
2022/05/11 11:29:11;;;;;;;;;;;;;;;22.10;19.29;98660.75;4788213;29;20448;-78
2022/05/11 11:31:55;;;;;;;;;;;;;;;22.83;19.07;98655.72;4792883;29;19929;-79
2022/05/11 11:34:23;;;;;;;;;;;;;;;23.52;18.06;98644.66;4790713;29;19964;-80
2022/05/11 11:36:49;;;;;;;;;;;;;;;24.32;17.62;98658.94;4799645;29;19969;-80
2022/05/11 11:39:34;;;;;;;;;;;;;;;25.10;16.63;98650.25;4792873;29;19925;-80
2022/05/11 11:42:00;;;;;;;;;;;;;;;25.67;17.01;98650.13;4777044;30;19928;-81
2022/05/11 11:44:27;;;;;;;;;;;;;;;25.94;15.72;98652.34;4790579;29;19917;-82
2022/05/11 11:46:52;;;;;;;;;;;;;;;25.75;15.28;98645.88;4775987;30;20312;-80
2022/05/11 11:49:18;;;;;;;;;;;;;;;25.18;16.04;98648.78;4778456;30;19925;-80
2022/05/11 11:51:50;;;;;;;;;;;;;;;25.56;15.90;98643.00;4790458;29;19960;-79
2022/05/11 11:54:34;;;;;;;;;;;;;;;26.25;16.62;98642.59;4795380;29;19925;-81
2022/05/11 11:57:00;;;;;;;;;;;;;;;27.08;14.41;98637.22;4807266;29;19944;-80
2022/05/11 11:59:26;;;;;;;;;;;;;;;27.20;15.91;98635.25;4793525;29;20416;-81
2022/05/11 12:01:55;;;;;;;;;;;;;;;27.49;15.28;98639.78;4807087;29;20347;-80
2022/05/11 12:04:27;;;;;;;;;;;;;;;27.71;13.84;98636.03;4793219;29;19925;-80
2022/05/11 12:15:15;;;;;;;;;;;;;;;27.18;14.25;98637.22;4803012;29;19920;-78
2022/05/11 12:17:41;;;;;;;;;;;;;;;26.92;15.15;98634.16;4776550;30;19921;-80
2022/05/11 12:20:11;;;;;;;;;;;;;;;27.73;14.71;98629.63;4794154;29;19917;-80
2022/05/11 12:22:37;;;;;;;;;;;;;;;27.83;14.22;98629.63;4789972;29;20380;-80
2022/05/11 12:25:12;;;;;;;;;;;;;;;27.76;14.88;98618.66;4775123;30;19921;-80
2022/05/11 12:27:38;;;;;;;;;;;;;;;28.48;14.17;98624.50;4809713;29;19921;-79
2022/05/11 12:30:05;;;;;;;;;;;;;;;28.67;13.19;98621.75;4786153;29;20026;-80
2022/05/11 12:32:35;;;;;;;;;;;;;;;28.65;14.13;98621.06;4772415;29;19957;-79
2022/05/11 12:35:12;;;;;;;;;;;;;;;29.09;14.72;98621.28;4784342;30;19922;-80
2022/05/11 12:37:37;;;;;;;;;;;;;;;29.28;14.40;98621.19;4791084;29;20382;-80
2022/05/11 12:40:12;;;;;;;;;;;;;;;29.61;13.90;98616.22;4801880;29;20024;-84
2022/05/11 12:42:37;;;;;;;;;;;;;;;27.94;13.38;98621.47;4762619;29;19928;-81
2022/05/11 12:45:03;;;;;;;;;;;;;;;26.90;13.85;98624.66;4786088;29;19921;-80
2022/05/11 12:47:29;;;;;;;;;;;;;;;26.31;14.56;98613.69;4802473;29;19921;-81
2022/05/11 12:49:54;;;;;;;;;;;;;;;26.63;14.64;98618.09;4771521;30;20396;-80
2022/05/11 12:52:20;;;;;;;;;;;;;;;26.69;14.64;98612.22;4773365;30;19964;-80
2022/05/11 12:54:58;;;;;;;;;;;;;;;27.54;14.12;98602.94;4792624;29;19921;-80
2022/05/11 12:57:24;;;;;;;;;;;;;;;27.69;13.67;98601.53;4796820;29;19922;-82
2022/05/11 12:59:53;;;;;;;;;;;;;;;28.67;14.61;98597.72;4802739;29;20006;-81
2022/05/11 13:02:21;;;;;;;;;;;;;;;28.44;13.20;98604.41;4798019;29;19965;-81
2022/05/11 13:04:48;;;;;;;;;;;;;;;28.59;13.26;98590.47;4775955;29;20002;-80
2022/05/11 13:07:13;;;;;;;;;;;;;;;28.20;13.11;98603.06;4789438;30;20012;-81
2022/05/11 13:09:44;;;;;;;;;;;;;;;28.58;14.06;98590.59;4781031;30;20417;-80
2022/05/11 13:12:11;;;;;;;;;;;;;;;28.99;13.32;98585.81;4775375;29;19928;-84
2022/05/11 13:14:43;;;;;;;;;;;;;;;29.14;13.68;98592.34;4781228;30;20377;-81
2022/05/11 13:17:09;;;;;;;;;;;;;;;28.86;13.73;98581.66;4777081;29;20442;-83
2022/05/11 13:19:35;;;;;;;;;;;;;;;28.92;13.45;98580.22;4776266;30;20011;-81
2022/05/11 13:22:02;;;;;;;;;;;;;;;29.41;13.30;98571.88;4769465;30;19921;-81
2022/05/11 13:24:35;;;;;;;;;;;;;;;29.10;13.00;98566.94;4801827;29;19923;-81
2022/05/11 13:27:00;;;;;;;;;;;;;;;29.27;12.76;98567.91;4759509;30;19921;-79
2022/05/11 13:29:26;;;;;;;;;;;;;;;29.28;13.08;98565.13;4780062;29;19924;-81
2022/05/11 13:32:18;;;;;;;;;;;;;;;29.15;12.47;98556.63;4788822;29;19925;-82